Idalia, Colorado
Current Conditions -  °F | °C
As of 11:55 AM on Friday 21 Nov 2014 (Local Time) from KSYF Reporting Station
Clear Clear  
Wind Chill: 55°   Ceiling: Unl
Heat Index: 55°   Visibility: 10mi
Dew Point: 25°   Wind: 15mph
Humidity: 32%   Direction: 180°S
Pressure: 29.92"   Gusts: 21mph
Location:  39.7°N, 102.29°W
Report Text: KSYF 211855Z AUTO 18013G18KT 10SM CLR 13/M04 A2992 RMK AO2 T01251040
Loading
Personal Weather Stations






























Interactive Weather Map New forecast layout! Learn more

10-Day Weather Forecast

Advertisements
Track Severe Weather on mobile